createdAt,value
2022-09-14T00:01:21.115Z,577.85
2022-09-14T00:04:05.914Z,593.67
2022-09-14T00:06:53.893Z,601.53
2022-09-14T00:09:41.808Z,584.03
2022-09-14T00:12:29.729Z,591.25
2022-09-14T00:15:17.836Z,608.92
2022-09-14T00:18:08.777Z,576.45
2022-09-14T00:21:00.773Z,586.58
2022-09-14T00:23:48.676Z,576.05
2022-09-14T00:26:37.411Z,591.83
2022-09-14T00:29:25.672Z,598.10
2022-09-14T00:32:13.609Z,621.25
2022-09-14T00:35:03.068Z,593.65
2022-09-14T00:37:52.361Z,601.28
2022-09-14T00:40:40.232Z,591.10
2022-09-14T00:43:28.160Z,598.35
2022-09-14T00:46:16.050Z,584.03
2022-09-14T00:49:08.781Z,563.10
2022-09-14T00:52:03.880Z,585.72
2022-09-14T00:54:54.194Z,574.75
2022-09-14T00:57:44.895Z,578.35
2022-09-14T01:00:33.229Z,580.55
2022-09-14T01:03:21.119Z,568.13
2022-09-14T01:06:18.191Z,578.33
2022-09-14T01:09:29.576Z,595.05
2022-09-14T01:12:27.504Z,574.00
2022-09-14T01:15:21.811Z,559.45
2022-09-14T01:18:17.285Z,563.15
2022-09-14T01:21:09.435Z,578.53
2022-09-14T01:24:02.641Z,595.50
2022-09-14T01:27:23.990Z,548.55
2022-09-14T01:30:14.764Z,565.47
2022-09-14T01:33:10.714Z,577.50
2022-09-14T01:36:02.262Z,587.47
2022-09-14T01:38:54.729Z,592.35
2022-09-14T01:41:43.525Z,576.05
2022-09-14T01:44:37.174Z,596.47
2022-09-14T01:47:31.154Z,595.13
2022-09-14T01:50:24.619Z,547.40
2022-09-14T01:53:17.611Z,556.75
2022-09-14T01:56:15.153Z,592.55
2022-09-14T01:59:11.270Z,586.47
2022-09-14T02:02:03.984Z,581.40
2022-09-14T02:04:58.751Z,605.63
2022-09-14T02:07:46.725Z,573.80
2022-09-14T02:10:34.797Z,607.92
2022-09-14T02:13:22.725Z,570.83
2022-09-14T02:16:10.922Z,592.80
2022-09-14T02:19:01.592Z,598.35
2022-09-14T02:21:49.757Z,598.28
2022-09-14T02:24:37.906Z,581.15
2022-09-14T02:27:25.994Z,566.97
2022-09-14T02:30:17.169Z,595.25
2022-09-14T02:33:20.140Z,603.63
2022-09-14T02:36:17.452Z,569.60
2022-09-14T02:39:15.801Z,572.88
2022-09-14T02:42:15.105Z,565.25
2022-09-14T02:45:11.246Z,568.63
2022-09-14T02:48:05.715Z,580.67
2022-09-14T02:51:01.657Z,580.92
2022-09-14T02:53:56.772Z,587.85
2022-09-14T02:56:45.661Z,590.63
2022-09-14T02:59:33.695Z,579.63
2022-09-14T03:02:21.704Z,580.53
2022-09-14T03:05:09.989Z,553.00
2022-09-14T03:07:57.871Z,576.15
2022-09-14T03:10:47.089Z,583.03
2022-09-14T03:13:35.625Z,579.72
2022-09-14T03:16:23.627Z,567.60
2022-09-14T03:19:12.156Z,548.60
2022-09-14T03:22:00.088Z,587.00
2022-09-14T03:24:47.950Z,588.10
2022-09-14T03:27:37.251Z,555.63
2022-09-14T03:30:25.736Z,598.10
2022-09-14T03:33:15.222Z,576.40
2022-09-14T03:36:10.723Z,577.30
2022-09-14T03:39:01.746Z,572.05
2022-09-14T03:41:49.739Z,586.25
2022-09-14T03:44:38.967Z,580.55
2022-09-14T03:47:27.177Z,580.70
2022-09-14T03:50:16.807Z,590.22
2022-09-14T03:53:05.238Z,582.38
2022-09-14T03:55:53.141Z,576.20
2022-09-14T03:58:41.347Z,593.75
2022-09-14T04:01:32.662Z,596.72
2022-09-14T04:04:20.818Z,577.05
2022-09-14T04:07:08.736Z,594.83
2022-09-14T04:09:56.830Z,602.28
2022-09-14T04:12:44.721Z,599.22
2022-09-14T04:15:32.665Z,588.83
2022-09-14T04:18:21.868Z,564.33
2022-09-14T04:21:13.835Z,571.33
2022-09-14T04:24:17.527Z,603.38
2022-09-14T04:27:05.767Z,582.28
2022-09-14T04:29:53.673Z,561.38
2022-09-14T04:32:41.849Z,581.38
2022-09-14T04:35:31.053Z,599.72
2022-09-14T04:38:18.901Z,592.08
2022-09-14T04:41:08.423Z,599.90
2022-09-14T04:43:57.543Z,579.38
2022-09-14T04:46:47.098Z,594.42
2022-09-14T04:49:35.170Z,589.88
2022-09-14T04:52:24.768Z,586.00
2022-09-14T04:55:12.642Z,572.55
2022-09-14T04:58:00.524Z,573.80
2022-09-14T05:00:48.390Z,588.50
2022-09-14T05:03:36.683Z,583.47
2022-09-14T05:06:26.949Z,584.10
2022-09-14T05:09:18.163Z,567.50
2022-09-14T05:12:06.674Z,586.35
2022-09-14T05:14:54.578Z,599.88
2022-09-14T05:17:42.651Z,586.00
2022-09-14T05:20:30.601Z,586.92
2022-09-14T05:23:18.637Z,576.38
2022-09-14T05:26:08.159Z,582.92
2022-09-14T05:28:57.858Z,596.05
2022-09-14T05:31:46.707Z,585.35
2022-09-14T05:34:34.620Z,611.60
2022-09-14T05:37:22.486Z,562.10
2022-09-14T05:40:11.473Z,587.70
2022-09-14T05:43:00.709Z,607.33
2022-09-14T05:45:48.624Z,572.47
2022-09-14T05:48:37.776Z,577.92
2022-09-14T05:51:27.065Z,567.65
2022-09-14T05:54:15.857Z,598.75
2022-09-14T05:57:03.771Z,582.03
2022-09-14T05:59:53.005Z,562.63
2022-09-14T06:02:40.911Z,628.95
2022-09-14T06:05:29.160Z,578.60
2022-09-14T06:08:17.141Z,584.47
2022-09-14T06:11:05.612Z,600.53
2022-09-14T06:13:55.180Z,601.42
2022-09-14T06:16:44.387Z,603.13
2022-09-14T06:19:32.281Z,611.15
2022-09-14T06:22:20.179Z,592.50
2022-09-14T06:25:08.898Z,598.42
2022-09-14T06:27:56.800Z,582.95
2022-09-14T06:30:45.436Z,588.35
2022-09-14T06:33:34.924Z,625.28
2022-09-14T06:36:24.876Z,604.15
2022-09-14T06:39:13.198Z,603.85
2022-09-14T06:42:01.149Z,588.15
2022-09-14T06:44:49.954Z,603.40
2022-09-14T06:47:37.847Z,623.33
2022-09-14T06:50:27.072Z,611.92
2022-09-14T06:53:14.962Z,576.35
2022-09-14T06:56:03.188Z,604.13
2022-09-14T06:58:52.171Z,621.92
2022-09-14T07:01:42.033Z,583.92
2022-09-14T07:04:29.984Z,605.78
2022-09-14T07:07:19.473Z,600.38
2022-09-14T07:10:07.881Z,607.92
2022-09-14T07:12:55.821Z,596.28
2022-09-14T07:15:49.882Z,568.72
2022-09-14T07:18:37.917Z,569.47
2022-09-14T07:21:26.971Z,598.80
2022-09-14T07:24:16.629Z,587.10
2022-09-14T07:27:04.815Z,589.80
2022-09-14T07:29:52.730Z,599.95
2022-09-14T07:32:40.581Z,582.40
2022-09-14T07:35:28.420Z,580.65
2022-09-14T07:38:23.646Z,580.90
2022-09-14T07:41:20.445Z,601.10
2022-09-14T07:44:09.487Z,592.17
2022-09-14T07:46:57.374Z,587.90
2022-09-14T07:49:45.412Z,573.60
2022-09-14T07:52:37.982Z,593.88
2022-09-14T07:55:26.554Z,579.15
2022-09-14T07:58:15.753Z,576.85
2022-09-14T08:01:07.601Z,598.97
2022-09-14T08:03:55.522Z,601.92
2022-09-14T08:06:43.407Z,613.08
2022-09-14T08:09:31.403Z,589.90
2022-09-14T08:12:19.255Z,613.05
2022-09-14T08:15:10.018Z,581.35
2022-09-14T08:17:57.948Z,580.00
2022-09-14T08:20:46.702Z,571.08
2022-09-14T08:23:35.257Z,579.42
2022-09-14T08:26:24.952Z,604.85
2022-09-14T08:29:13.547Z,592.13
2022-09-14T08:32:03.283Z,609.65
2022-09-14T08:34:51.968Z,622.28
2022-09-14T08:37:39.880Z,610.10
2022-09-14T08:40:27.774Z,600.88
2022-09-14T08:43:16.049Z,590.85
2022-09-14T08:46:07.091Z,612.15
2022-09-14T08:48:56.671Z,616.45
2022-09-14T08:51:44.522Z,614.60
2022-09-14T08:54:33.220Z,595.47
2022-09-14T08:57:27.482Z,584.28
2022-09-14T09:00:18.437Z,595.88
2022-09-14T09:03:32.675Z,563.30
2022-09-14T09:06:30.151Z,597.38
2022-09-14T09:09:25.554Z,584.42
2022-09-14T09:12:17.496Z,617.15
2022-09-14T09:15:16.038Z,604.33
2022-09-14T09:18:09.143Z,604.28
2022-09-14T09:21:02.724Z,606.35
2022-09-14T09:23:52.088Z,613.15
2022-09-14T09:26:40.312Z,616.67
2022-09-14T09:29:28.195Z,610.88
2022-09-14T09:32:31.299Z,615.72
2022-09-14T09:35:24.480Z,600.67
2022-09-14T09:38:27.520Z,585.85
2022-09-14T09:41:22.379Z,618.78
2022-09-14T09:44:11.116Z,618.75
2022-09-14T09:47:00.856Z,635.03
2022-09-14T09:49:59.702Z,594.30
2022-09-14T09:52:51.272Z,624.50
2022-09-14T09:55:40.797Z,628.17
2022-09-14T09:58:37.640Z,622.22
2022-09-14T10:01:29.287Z,611.33
2022-09-14T10:04:19.350Z,615.97
2022-09-14T10:07:07.332Z,613.53
2022-09-14T10:10:00.012Z,632.08
2022-09-14T10:12:50.897Z,633.17
2022-09-14T10:15:40.780Z,639.05
2022-09-14T10:18:30.978Z,649.92
2022-09-14T10:21:22.012Z,612.08
2022-09-14T10:24:19.740Z,618.65
2022-09-14T10:27:36.983Z,614.80
2022-09-14T10:30:27.979Z,606.10
2022-09-14T10:33:18.314Z,630.47
2022-09-14T10:36:14.584Z,633.63
2022-09-14T10:39:14.346Z,618.28
2022-09-14T10:42:08.843Z,621.15
2022-09-14T10:45:09.862Z,617.45
2022-09-14T10:48:37.148Z,619.88
2022-09-14T10:51:38.920Z,603.55
2022-09-14T10:54:54.434Z,614.55
2022-09-14T10:57:50.591Z,614.20
2022-09-14T11:00:51.399Z,621.75
2022-09-14T11:03:55.148Z,613.58
2022-09-14T11:06:53.547Z,592.95
2022-09-14T11:09:47.940Z,630.80
2022-09-14T11:12:43.026Z,604.65
2022-09-14T11:15:39.041Z,620.72
2022-09-14T11:18:36.745Z,620.20
2022-09-14T11:21:37.236Z,613.97
2022-09-14T11:24:30.976Z,630.67
2022-09-14T11:27:26.637Z,610.65
2022-09-14T11:30:18.697Z,606.83
2022-09-14T11:33:13.830Z,592.78
2022-09-14T11:36:04.977Z,616.20
2022-09-14T11:39:04.694Z,601.78
2022-09-14T11:41:59.555Z,598.05
2022-09-14T11:44:50.315Z,625.97
2022-09-14T11:47:47.578Z,615.53
2022-09-14T11:50:36.955Z,613.53
2022-09-14T11:53:26.624Z,611.78
2022-09-14T11:56:26.349Z,594.92
2022-09-14T11:59:36.202Z,619.58
2022-09-14T12:03:01.592Z,586.97
2022-09-14T12:05:50.831Z,601.75
2022-09-14T12:08:41.244Z,613.45
2022-09-14T12:11:35.987Z,597.17
2022-09-14T12:14:35.751Z,634.42
2022-09-14T12:17:39.978Z,603.38
2022-09-14T12:20:44.110Z,597.25
2022-09-14T12:23:44.540Z,609.85
2022-09-14T12:26:35.649Z,613.08
2022-09-14T12:29:32.948Z,607.03
2022-09-14T12:32:42.322Z,634.55
2022-09-14T12:35:47.242Z,626.83
2022-09-14T12:38:43.875Z,613.03
2022-09-14T12:42:25.642Z,632.38
2022-09-14T12:45:52.290Z,615.08
2022-09-14T12:48:58.659Z,593.70
2022-09-14T12:51:51.199Z,616.38
2022-09-14T12:54:57.224Z,595.95
2022-09-14T12:57:52.402Z,620.63
2022-09-14T13:00:54.009Z,610.45
2022-09-14T13:03:50.886Z,597.13
2022-09-14T13:06:44.031Z,623.45
2022-09-14T13:09:33.216Z,630.28
2022-09-14T13:12:28.619Z,642.63
2022-09-14T13:15:22.244Z,635.70
2022-09-14T13:18:29.082Z,642.03
2022-09-14T13:21:23.572Z,616.03
2022-09-14T13:24:30.972Z,613.05
2022-09-14T13:27:23.746Z,651.45
2022-09-14T13:30:22.347Z,628.83
2022-09-14T13:33:16.600Z,630.17
2022-09-14T13:36:06.027Z,613.72
2022-09-14T13:38:54.908Z,638.80
2022-09-14T13:41:44.622Z,625.70
2022-09-14T13:44:34.237Z,633.25
2022-09-14T13:47:26.468Z,623.58
2022-09-14T13:50:15.493Z,625.28
2022-09-14T13:53:04.520Z,636.20
2022-09-14T13:55:52.609Z,611.15
2022-09-14T13:58:40.614Z,632.33
2022-09-14T14:01:29.724Z,604.05
2022-09-14T14:04:29.460Z,630.03
2022-09-14T14:07:22.188Z,621.28
2022-09-14T14:10:29.461Z,606.45
2022-09-14T14:13:26.303Z,598.08
2022-09-14T14:16:18.991Z,604.05
2022-09-14T14:19:07.994Z,609.50
2022-09-14T14:22:18.624Z,595.28
2022-09-14T14:25:20.686Z,609.38
2022-09-14T14:28:17.842Z,586.80
2022-09-14T14:31:09.021Z,586.97
2022-09-14T14:33:58.763Z,610.75
2022-09-14T14:36:47.989Z,602.15
2022-09-14T14:39:37.371Z,566.08
2022-09-14T14:42:25.535Z,596.80
2022-09-14T14:45:15.719Z,572.45
2022-09-14T14:48:03.978Z,544.38
2022-09-14T14:50:51.878Z,580.78
2022-09-14T14:53:39.759Z,579.05
2022-09-14T14:56:29.591Z,581.60
2022-09-14T14:59:29.440Z,606.38
2022-09-14T15:02:17.375Z,595.10
2022-09-14T15:05:05.852Z,564.95
2022-09-14T15:07:54.981Z,556.08
2022-09-14T15:10:43.023Z,589.90
2022-09-14T15:13:32.256Z,585.53
2022-09-14T15:16:20.388Z,589.38
2022-09-14T15:19:10.486Z,568.65
2022-09-14T15:22:01.295Z,581.60
2022-09-14T15:24:49.928Z,582.70
2022-09-14T15:27:37.965Z,574.78
2022-09-14T15:30:27.536Z,582.90
2022-09-14T15:33:15.529Z,587.78
2022-09-14T15:36:04.095Z,627.10
2022-09-14T15:38:51.968Z,585.38
2022-09-14T15:41:39.938Z,613.63
2022-09-14T15:44:27.894Z,599.72
2022-09-14T15:47:17.679Z,570.15
2022-09-14T15:50:06.665Z,586.45
2022-09-14T15:52:56.248Z,562.92
2022-09-14T15:55:47.265Z,594.83
2022-09-14T15:58:35.149Z,569.72
2022-09-14T16:01:23.083Z,578.53
2022-09-14T16:04:12.412Z,580.22
2022-09-14T16:07:00.329Z,568.20
2022-09-14T16:09:48.225Z,598.65
2022-09-14T16:12:36.149Z,596.10
2022-09-14T16:15:24.060Z,582.83
2022-09-14T16:18:11.931Z,589.90
2022-09-14T16:21:07.370Z,617.92
2022-09-14T16:23:57.567Z,602.70
2022-09-14T16:26:46.573Z,575.80
2022-09-14T16:29:34.463Z,569.83
2022-09-14T16:32:23.052Z,589.53
2022-09-14T16:35:10.999Z,585.92
2022-09-14T16:38:00.249Z,585.47
2022-09-14T16:40:48.139Z,584.20
2022-09-14T16:43:36.702Z,587.33
2022-09-14T16:46:26.687Z,574.70
2022-09-14T16:49:14.566Z,576.53
2022-09-14T16:52:02.824Z,569.80
2022-09-14T16:54:56.070Z,585.60
2022-09-14T16:57:44.185Z,565.55
2022-09-14T17:00:32.154Z,574.15
2022-09-14T17:03:20.067Z,575.88
2022-09-14T17:06:11.011Z,593.47
2022-09-14T17:09:01.214Z,585.35
2022-09-14T17:11:50.615Z,581.95
2022-09-14T17:14:38.518Z,564.20
2022-09-14T17:17:26.376Z,567.78
2022-09-14T17:20:14.235Z,587.10
2022-09-14T17:23:02.130Z,586.85
2022-09-14T17:25:50.114Z,575.22
2022-09-14T17:28:40.362Z,594.75
2022-09-14T17:31:39.158Z,561.53
2022-09-14T17:34:27.102Z,580.83
2022-09-14T17:37:15.003Z,563.05
2022-09-14T17:40:03.608Z,558.45
2022-09-14T17:42:51.530Z,598.50
2022-09-14T17:45:41.187Z,570.28
2022-09-14T17:48:33.252Z,564.53
2022-09-14T17:51:22.725Z,548.17
2022-09-14T17:54:10.696Z,591.78
2022-09-14T17:56:58.566Z,572.78
2022-09-14T17:59:46.969Z,572.00
2022-09-14T18:02:36.237Z,596.25
2022-09-14T18:05:24.148Z,580.22
2022-09-14T18:08:12.101Z,579.90
2022-09-14T18:11:05.613Z,591.97
2022-09-14T18:13:53.733Z,570.78
2022-09-14T18:16:43.003Z,571.95
2022-09-14T18:19:32.336Z,574.03
2022-09-14T18:22:20.323Z,566.00
2022-09-14T18:25:09.675Z,587.38
2022-09-14T18:27:57.587Z,570.45
2022-09-14T18:30:45.516Z,567.20
2022-09-14T18:33:34.141Z,558.30
2022-09-14T18:36:23.644Z,570.70
2022-09-14T18:39:12.899Z,578.72
2022-09-14T18:42:00.817Z,565.25
2022-09-14T18:44:53.611Z,584.72
2022-09-14T18:47:41.517Z,580.00
2022-09-14T18:50:29.459Z,586.60
2022-09-14T18:53:18.755Z,560.88
2022-09-14T18:56:08.956Z,570.33
2022-09-14T18:58:57.381Z,576.70
2022-09-14T19:01:45.436Z,587.35
2022-09-14T19:04:33.474Z,587.20
2022-09-14T19:07:21.367Z,590.15
2022-09-14T19:10:11.875Z,576.83
2022-09-14T19:12:59.860Z,582.30
2022-09-14T19:15:47.832Z,586.35
2022-09-14T19:18:36.376Z,582.60
2022-09-14T19:21:26.249Z,584.50
2022-09-14T19:24:16.035Z,571.28
2022-09-14T19:27:05.963Z,582.33
2022-09-14T19:29:53.910Z,561.38
2022-09-14T19:32:42.116Z,561.35
2022-09-14T19:35:31.451Z,584.90
2022-09-14T19:38:19.330Z,568.70
2022-09-14T19:41:07.833Z,585.38
2022-09-14T19:43:57.040Z,568.47
2022-09-14T19:46:45.265Z,569.95
2022-09-14T19:49:33.177Z,540.53
2022-09-14T19:52:21.073Z,560.97
2022-09-14T19:55:09.936Z,566.05
2022-09-14T19:57:57.851Z,575.53
2022-09-14T20:00:47.106Z,568.70
2022-09-14T20:03:36.706Z,555.47
2022-09-14T20:06:29.517Z,573.50
2022-09-14T20:09:20.022Z,579.03
2022-09-14T20:12:08.059Z,544.97
2022-09-14T20:14:56.030Z,544.47
2022-09-14T20:17:45.288Z,530.65
2022-09-14T20:20:37.530Z,558.20
2022-09-14T20:23:25.531Z,548.78
2022-09-14T20:26:15.505Z,557.95
2022-09-14T20:29:03.880Z,550.72
2022-09-14T20:31:52.317Z,571.78
2022-09-14T20:34:41.707Z,553.53
2022-09-14T20:37:29.686Z,540.53
2022-09-14T20:40:17.779Z,580.72
2022-09-14T20:43:05.675Z,534.80
2022-09-14T20:46:00.819Z,543.30
2022-09-14T20:48:49.719Z,553.63
2022-09-14T20:51:39.630Z,557.45
2022-09-14T20:54:27.702Z,515.50
2022-09-14T20:57:15.570Z,550.38
2022-09-14T21:00:04.225Z,530.15
2022-09-14T21:02:52.363Z,555.17
2022-09-14T21:05:40.588Z,546.75
2022-09-14T21:08:31.557Z,550.00
2022-09-14T21:11:22.651Z,529.97
2022-09-14T21:14:10.513Z,573.42
2022-09-14T21:16:58.558Z,536.63
2022-09-14T21:19:46.493Z,536.67
2022-09-14T21:22:34.491Z,539.60
2022-09-14T21:25:23.797Z,550.17
2022-09-14T21:28:11.686Z,564.15
2022-09-14T21:31:10.260Z,537.35
2022-09-14T21:34:00.030Z,516.28
2022-09-14T21:36:49.487Z,563.15
2022-09-14T21:39:38.016Z,545.83
2022-09-14T21:42:27.254Z,557.30
2022-09-14T21:45:15.246Z,545.97
2022-09-14T21:48:03.362Z,552.63
2022-09-14T21:50:51.284Z,564.72
2022-09-14T21:53:39.168Z,565.47
2022-09-14T21:56:29.204Z,548.05
2022-09-14T21:59:20.315Z,550.78
2022-09-14T22:02:08.248Z,531.65
2022-09-14T22:04:56.252Z,569.47
2022-09-14T22:07:44.154Z,555.78
2022-09-14T22:10:32.011Z,532.83
2022-09-14T22:13:20.044Z,526.50
2022-09-14T22:16:10.876Z,537.35
2022-09-14T22:19:00.569Z,535.25
2022-09-14T22:21:48.684Z,542.75
2022-09-14T22:24:38.621Z,544.78
2022-09-14T22:27:26.579Z,521.08
2022-09-14T22:30:14.888Z,553.40
2022-09-14T22:33:04.207Z,566.58
2022-09-14T22:35:53.875Z,555.63
2022-09-14T22:38:42.259Z,519.40
2022-09-14T22:41:30.695Z,552.22
2022-09-14T22:44:18.599Z,544.97
2022-09-14T22:47:06.780Z,562.42
2022-09-14T22:49:56.005Z,555.38
2022-09-14T22:52:43.928Z,531.33
2022-09-14T22:55:31.837Z,528.38
2022-09-14T22:58:22.127Z,526.42
2022-09-14T23:01:12.686Z,534.63
2022-09-14T23:04:04.771Z,519.45
2022-09-14T23:06:54.004Z,561.33
2022-09-14T23:09:42.119Z,556.17
2022-09-14T23:12:30.008Z,541.70
2022-09-14T23:15:18.265Z,566.00
2022-09-14T23:18:06.756Z,521.35
2022-09-14T23:20:54.946Z,566.13
2022-09-14T23:23:44.233Z,541.63
2022-09-14T23:26:33.897Z,499.73
2022-09-14T23:29:21.761Z,528.38
2022-09-14T23:32:09.982Z,534.15
2022-09-14T23:34:57.882Z,521.28
2022-09-14T23:37:45.769Z,530.40
2022-09-14T23:40:35.007Z,549.08
2022-09-14T23:43:22.915Z,549.83
2022-09-14T23:46:11.084Z,512.17
2022-09-14T23:48:59.078Z,536.85
2022-09-14T23:51:47.051Z,524.13
2022-09-14T23:54:35.156Z,510.60
2022-09-14T23:57:24.450Z,540.60
